Time;durP1;ratioP1;P1;durP2;ratioP2;P2;SDS_P1;SDS_P2;PMS_P1;PMS_P2;Temp;Humidity;BMP_temperature;BMP_pressure;BME280_temperature;BME280_humidity;BME280_pressure;Samples;Min_cycle;Max_cycle;Signal;HPM_P1;HPM_P2
2021/01/02 00:00:47;;;;;;;16.57;9.40;;;2.80;99.90;;;;;;5070454;28;20500;-54
2021/01/02 00:03:38;;;;;;;16.97;9.37;;;2.80;99.90;;;;;;5070455;28;20944;-54
2021/01/02 00:06:09;;;;;;;15.33;8.80;;;2.80;99.90;;;;;;5070525;28;20455;-54
2021/01/02 00:08:38;;;;;;;12.87;8.17;;;2.80;99.90;;;;;;5063122;28;20447;-55
2021/01/02 00:11:39;;;;;;;22.23;11.90;;;2.90;99.90;;;;;;5078633;28;20454;-54
2021/01/02 00:14:25;;;;;;;21.83;10.80;;;2.80;99.90;;;;;;5083696;28;20979;-54
2021/01/02 00:17:20;;;;;;;26.00;12.83;;;2.90;99.90;;;;;;5075941;28;20447;-54
2021/01/02 00:20:05;;;;;;;23.47;12.60;;;2.90;99.90;;;;;;5074476;28;20445;-54
2021/01/02 00:22:47;;;;;;;21.53;11.50;;;2.70;99.90;;;;;;5071658;28;20443;-54
2021/01/02 00:25:15;;;;;;;19.37;11.20;;;2.80;99.90;;;;;;5074237;28;20568;-54
2021/01/02 00:28:06;;;;;;;20.17;12.40;;;2.70;99.90;;;;;;5074537;28;20509;-54
2021/01/02 00:30:56;;;;;;;19.90;11.03;;;2.60;99.90;;;;;;5067550;28;20457;-54
2021/01/02 00:33:39;;;;;;;23.17;12.97;;;2.70;99.90;;;;;;5063198;28;20446;-54
2021/01/02 00:36:14;;;;;;;22.33;12.40;;;2.70;99.90;;;;;;5073511;28;20521;-54
2021/01/02 00:38:40;;;;;;;21.67;12.30;;;2.70;99.90;;;;;;5074011;28;20438;-54
2021/01/02 00:41:07;;;;;;;28.93;13.30;;;2.80;99.90;;;;;;5075731;28;20445;-54
2021/01/02 00:43:34;;;;;;;20.53;12.40;;;2.70;99.90;;;;;;5072725;28;20447;-54
2021/01/02 00:46:00;;;;;;;23.23;13.67;;;2.70;99.90;;;;;;5073947;28;20438;-54
2021/01/02 00:48:28;;;;;;;28.17;13.80;;;2.60;99.90;;;;;;5072915;28;20507;-54
2021/01/02 00:51:00;;;;;;;30.10;15.63;;;2.50;99.90;;;;;;5073800;28;20947;-54
2021/01/02 00:53:59;;;;;;;35.70;16.07;;;2.40;99.90;;;;;;5073726;28;20444;-54
2021/01/02 00:56:30;;;;;;;36.10;16.33;;;2.10;99.90;;;;;;5073626;28;20447;-54
2021/01/02 00:59:40;;;;;;;27.37;14.03;;;2.10;99.90;;;;;;5053721;28;20865;-54
2021/01/02 01:02:34;;;;;;;24.20;12.97;;;2.20;99.90;;;;;;5064433;28;20457;-54
2021/01/02 01:05:06;;;;;;;22.13;12.27;;;2.20;99.90;;;;;;5073554;28;20459;-54
2021/01/02 01:07:33;;;;;;;20.57;11.13;;;2.20;99.90;;;;;;5073413;28;20443;-54
2021/01/02 01:10:04;;;;;;;20.90;11.03;;;2.30;99.90;;;;;;5073134;28;20820;-54
2021/01/02 01:12:39;;;;;;;18.57;10.80;;;2.40;99.90;;;;;;5073573;28;20825;-54
2021/01/02 01:15:07;;;;;;;21.40;11.77;;;2.50;99.90;;;;;;5073757;28;20494;-54
2021/01/02 01:17:56;;;;;;;23.77;11.43;;;2.40;99.90;;;;;;5072597;28;20451;-54
2021/01/02 01:20:25;;;;;;;22.87;11.00;;;2.30;99.90;;;;;;5072912;28;20454;-54
2021/01/02 01:23:09;;;;;;;18.50;10.53;;;2.30;99.90;;;;;;5081135;28;20509;-54
2021/01/02 01:25:51;;;;;;;17.83;10.63;;;2.40;99.90;;;;;;5073276;28;20477;-54
2021/01/02 01:28:23;;;;;;;21.20;12.27;;;2.60;99.90;;;;;;5073009;28;20450;-54
2021/01/02 01:30:54;;;;;;;25.33;12.90;;;2.50;99.90;;;;;;5072294;28;20454;-54
2021/01/02 01:33:28;;;;;;;22.43;11.03;;;2.40;99.90;;;;;;5052968;28;20478;-54
2021/01/02 01:36:00;;;;;;;23.10;11.60;;;2.30;99.90;;;;;;5053421;28;20486;-54
2021/01/02 01:38:28;;;;;;;19.40;10.30;;;2.30;99.90;;;;;;5053169;28;20459;-54
2021/01/02 01:41:11;;;;;;;20.00;10.77;;;2.40;99.90;;;;;;5056222;28;20500;-55
2021/01/02 01:44:05;;;;;;;20.60;11.70;;;2.40;99.90;;;;;;5092980;28;20466;-54
2021/01/02 01:46:33;;;;;;;23.00;11.90;;;2.50;99.90;;;;;;5025274;28;20808;-54
2021/01/02 01:49:08;;;;;;;22.97;11.77;;;2.20;99.90;;;;;;5052629;28;20451;-55
2021/01/02 01:51:56;;;;;;;21.73;11.97;;;2.20;99.90;;;;;;5058714;28;20453;-54
2021/01/02 01:54:50;;;;;;;23.10;12.47;;;2.00;99.90;;;;;;5064073;28;20661;-55
2021/01/02 01:57:23;;;;;;;24.27;11.70;;;1.80;99.90;;;;;;5072831;28;20483;-54
2021/01/02 02:00:14;;;;;;;22.20;11.33;;;2.00;99.90;;;;;;5071769;28;20455;-54
2021/01/02 02:03:02;;;;;;;19.67;11.80;;;2.10;99.90;;;;;;5071943;28;20456;-55
2021/01/02 02:05:38;;;;;;;19.83;10.70;;;2.10;99.90;;;;;;5092448;28;20461;-54
2021/01/02 02:08:08;;;;;;;17.20;10.40;;;2.10;99.90;;;;;;5093039;28;20536;-54
2021/01/02 02:10:36;;;;;;;21.17;11.30;;;2.20;99.90;;;;;;5092425;28;20827;-55
2021/01/02 02:13:11;;;;;;;27.43;14.53;;;2.20;99.90;;;;;;5074288;28;20450;-54
2021/01/02 02:15:48;;;;;;;19.30;11.20;;;2.20;99.90;;;;;;5066794;28;20573;-55
2021/01/02 02:18:18;;;;;;;26.57;12.90;;;2.20;99.90;;;;;;5052314;28;20646;-54
2021/01/02 02:20:47;;;;;;;23.80;12.53;;;1.90;99.90;;;;;;5051976;28;20824;-54
2021/01/02 02:23:14;;;;;;;18.67;10.73;;;1.60;99.90;;;;;;5069515;28;20832;-54
2021/01/02 02:25:48;;;;;;;21.93;10.53;;;1.50;99.90;;;;;;5072103;28;20989;-54
2021/01/02 02:28:50;;;;;;;21.73;10.60;;;1.50;99.90;;;;;;5072048;28;20501;-55
2021/01/02 02:31:17;;;;;;;24.40;10.33;;;1.70;99.90;;;;;;5068205;28;20461;-54
2021/01/02 02:33:54;;;;;;;19.70;11.13;;;1.80;99.90;;;;;;5082586;28;20493;-54
2021/01/02 02:36:21;;;;;;;18.03;9.90;;;1.90;99.90;;;;;;5069811;28;20450;-55
2021/01/02 02:38:47;;;;;;;19.90;9.23;;;1.70;99.90;;;;;;5066148;28;20447;-55
2021/01/02 02:41:16;;;;;;;18.30;10.40;;;1.70;99.90;;;;;;5073075;28;20511;-55
2021/01/02 02:43:50;;;;;;;18.27;9.40;;;1.90;99.90;;;;;;5070526;28;20540;-54
2021/01/02 02:46:18;;;;;;;17.83;9.80;;;2.00;99.90;;;;;;5071029;28;21036;-55
2021/01/02 02:48:48;;;;;;;14.53;9.13;;;2.00;99.90;;;;;;5071220;28;20530;-55
2021/01/02 02:51:18;;;;;;;18.23;9.10;;;2.10;99.90;;;;;;5071215;28;20496;-55
2021/01/02 02:53:48;;;;;;;16.70;8.80;;;2.20;99.90;;;;;;5071219;28;20473;-55
2021/01/02 02:56:14;;;;;;;17.67;8.70;;;2.30;99.90;;;;;;5070852;28;20561;-54
2021/01/02 02:58:41;;;;;;;17.03;8.90;;;2.10;99.90;;;;;;5070155;28;20455;-54
2021/01/02 03:01:08;;;;;;;16.00;9.20;;;2.10;99.90;;;;;;5071343;28;20509;-54
2021/01/02 03:03:35;;;;;;;13.97;9.00;;;2.10;99.90;;;;;;5070833;28;20864;-54
2021/01/02 03:06:02;;;;;;;14.40;8.37;;;1.90;99.90;;;;;;5071032;28;20454;-55
2021/01/02 03:08:29;;;;;;;17.10;8.60;;;1.80;99.90;;;;;;5070510;28;20968;-54
2021/01/02 03:10:58;;;;;;;14.10;8.20;;;1.60;99.90;;;;;;5070598;28;20484;-55
2021/01/02 03:13:25;;;;;;;13.80;7.70;;;1.60;99.90;;;;;;5067642;28;20483;-55
2021/01/02 03:15:52;;;;;;;20.17;9.57;;;1.70;99.90;;;;;;5069572;28;20475;-54
2021/01/02 03:18:19;;;;;;;15.67;8.80;;;1.80;99.90;;;;;;5070921;28;20457;-54
2021/01/02 03:20:46;;;;;;;14.87;8.87;;;1.90;99.90;;;;;;5070444;28;21063;-55
2021/01/02 03:23:13;;;;;;;15.07;8.30;;;1.90;99.90;;;;;;5070661;28;20945;-54
2021/01/02 03:25:39;;;;;;;14.63;8.40;;;1.80;99.90;;;;;;5073493;28;20982;-55
2021/01/02 03:28:06;;;;;;;14.50;8.57;;;1.90;99.90;;;;;;5070677;28;20455;-54
2021/01/02 03:30:32;;;;;;;19.23;9.83;;;1.90;99.90;;;;;;5067246;28;20447;-55
2021/01/02 03:32:59;;;;;;;16.23;9.87;;;2.00;99.90;;;;;;5070519;28;20447;-55
2021/01/02 03:35:26;;;;;;;17.57;9.07;;;2.00;99.90;;;;;;5070253;28;20931;-55
2021/01/02 03:37:52;;;;;;;17.53;10.10;;;1.90;99.90;;;;;;5063931;28;20443;-54
2021/01/02 03:40:19;;;;;;;22.13;12.97;;;1.90;99.90;;;;;;5071723;28;20454;-55
2021/01/02 03:42:47;;;;;;;21.77;12.00;;;2.00;99.90;;;;;;5063959;28;20447;-55
2021/01/02 03:45:14;;;;;;;24.70;14.00;;;1.90;99.90;;;;;;5070121;28;20463;-55
2021/01/02 03:47:44;;;;;;;29.10;16.43;;;2.00;99.90;;;;;;5070439;28;20523;-54
2021/01/02 03:50:12;;;;;;;24.30;13.37;;;2.00;99.90;;;;;;5070010;28;20454;-54
2021/01/02 03:52:40;;;;;;;24.70;14.13;;;2.00;99.90;;;;;;5069596;28;20828;-55
2021/01/02 03:55:08;;;;;;;22.70;12.00;;;2.00;99.90;;;;;;5071227;28;20877;-54
2021/01/02 03:57:35;;;;;;;22.80;12.67;;;1.90;99.90;;;;;;5062278;28;20450;-54
2021/01/02 04:00:02;;;;;;;20.83;12.53;;;1.60;99.90;;;;;;5070176;28;20450;-54
2021/01/02 04:02:28;;;;;;;21.00;12.23;;;1.50;99.90;;;;;;5070140;28;20454;-55
2021/01/02 04:04:55;;;;;;;18.47;11.50;;;1.60;99.90;;;;;;5069979;28;20473;-54
2021/01/02 04:07:21;;;;;;;20.57;13.00;;;1.60;99.90;;;;;;5068748;28;20881;-54
2021/01/02 04:09:48;;;;;;;20.23;12.07;;;1.60;99.90;;;;;;5070131;28;20826;-54
2021/01/02 04:12:15;;;;;;;20.03;11.30;;;1.60;99.90;;;;;;5065915;28;20448;-55
2021/01/02 04:14:41;;;;;;;18.63;9.90;;;1.70;99.90;;;;;;5068922;28;20479;-55
2021/01/02 04:17:08;;;;;;;17.67;10.07;;;1.70;99.90;;;;;;5070189;28;20449;-55
2021/01/02 04:19:34;;;;;;;19.30;10.40;;;1.80;99.90;;;;;;5072362;28;20453;-55
2021/01/02 04:22:01;;;;;;;16.37;10.20;;;1.80;99.90;;;;;;5069905;28;20452;-54
2021/01/02 04:24:28;;;;;;;19.23;10.30;;;1.80;99.90;;;;;;5066450;28;21065;-54
2021/01/02 04:27:00;;;;;;;17.33;9.77;;;1.90;99.90;;;;;;5069848;28;20943;-54
2021/01/02 04:29:26;;;;;;;18.87;11.43;;;1.80;99.90;;;;;;5069915;28;20837;-55
2021/01/02 04:31:55;;;;;;;20.43;10.70;;;1.60;99.90;;;;;;5069694;28;20500;-54
2021/01/02 04:34:22;;;;;;;20.07;10.00;;;1.70;99.90;;;;;;5069758;28;20492;-54
2021/01/02 04:36:49;;;;;;;18.83;11.00;;;1.80;99.90;;;;;;5069755;28;20834;-54
2021/01/02 04:39:18;;;;;;;18.07;10.10;;;1.80;99.90;;;;;;5061873;28;20443;-54
2021/01/02 04:41:44;;;;;;;19.70;9.90;;;1.90;99.90;;;;;;5063771;28;20447;-55
2021/01/02 04:44:12;;;;;;;18.00;10.80;;;1.90;99.90;;;;;;5069782;28;20485;-55
2021/01/02 04:46:40;;;;;;;19.90;10.63;;;1.60;99.90;;;;;;5069986;28;20450;-54
2021/01/02 04:49:07;;;;;;;15.93;9.87;;;1.60;99.90;;;;;;5069472;28;20461;-54
2021/01/02 04:51:34;;;;;;;20.73;10.80;;;1.70;99.90;;;;;;5070006;28;20457;-55
2021/01/02 04:54:05;;;;;;;16.53;9.27;;;1.70;99.90;;;;;;5070194;28;20467;-54
2021/01/02 04:56:33;;;;;;;18.00;9.73;;;1.90;99.90;;;;;;5072322;28;20986;-55
2021/01/02 04:59:01;;;;;;;23.80;11.53;;;1.90;99.90;;;;;;5068643;28;20828;-54
2021/01/02 05:01:31;;;;;;;18.20;10.30;;;1.90;99.90;;;;;;5072192;28;20454;-54
2021/01/02 05:03:58;;;;;;;18.60;10.37;;;2.00;99.90;;;;;;5073544;28;20466;-54
2021/01/02 05:06:24;;;;;;;19.70;10.30;;;2.00;99.90;;;;;;5073443;28;20443;-54
2021/01/02 05:08:51;;;;;;;19.97;10.93;;;2.00;99.90;;;;;;5073078;28;20451;-54
2021/01/02 05:11:18;;;;;;;16.57;9.13;;;2.10;99.90;;;;;;5073452;28;20488;-55
2021/01/02 05:13:46;;;;;;;18.37;9.60;;;2.10;99.90;;;;;;5071960;28;20995;-54
2021/01/02 05:16:19;;;;;;;17.77;9.30;;;2.10;99.90;;;;;;5072931;28;20513;-55
2021/01/02 05:19:03;;;;;;;15.97;8.77;;;2.20;99.90;;;;;;5067812;28;20451;-55
2021/01/02 05:21:30;;;;;;;19.83;8.63;;;2.20;99.90;;;;;;5069644;28;20457;-55
2021/01/02 05:24:12;;;;;;;15.87;7.57;;;2.20;99.90;;;;;;5072403;28;20481;-54
2021/01/02 05:26:40;;;;;;;18.67;10.53;;;2.10;99.90;;;;;;5072861;28;20450;-55
2021/01/02 05:29:18;;;;;;;26.97;14.13;;;2.00;99.90;;;;;;5076038;28;20959;-55
2021/01/02 05:31:47;;;;;;;24.47;13.30;;;2.00;99.90;;;;;;5069709;28;20508;-54
2021/01/02 05:34:16;;;;;;;24.60;13.00;;;2.00;99.90;;;;;;5072848;28;20852;-54
2021/01/02 05:36:42;;;;;;;19.70;10.63;;;2.00;99.90;;;;;;5072645;28;20455;-54
2021/01/02 05:39:12;;;;;;;18.27;8.90;;;2.00;99.90;;;;;;5072162;28;20451;-54
2021/01/02 05:41:50;;;;;;;22.80;10.17;;;2.00;99.90;;;;;;5072682;28;20843;-54
2021/01/02 05:44:17;;;;;;;17.87;8.87;;;2.10;99.90;;;;;;5072638;28;20991;-54
2021/01/02 05:46:49;;;;;;;17.37;8.73;;;2.10;99.90;;;;;;5072692;28;20447;-54
2021/01/02 05:49:33;;;;;;;19.00;8.57;;;2.10;99.90;;;;;;5072350;28;20446;-54
2021/01/02 05:52:01;;;;;;;15.87;8.70;;;2.20;99.90;;;;;;5076769;28;20451;-54
2021/01/02 05:54:28;;;;;;;17.60;9.03;;;2.00;99.90;;;;;;5077171;28;20512;-54
2021/01/02 05:57:00;;;;;;;16.47;8.30;;;1.80;99.90;;;;;;5077240;28;20455;-54
2021/01/02 05:59:31;;;;;;;17.33;9.10;;;1.90;99.90;;;;;;5080915;28;20478;-54
2021/01/02 06:01:58;;;;;;;14.17;8.33;;;2.00;99.90;;;;;;5077073;28;20538;-54
2021/01/02 06:04:25;;;;;;;16.40;8.13;;;2.10;99.90;;;;;;5077082;28;20573;-54
2021/01/02 06:07:08;;;;;;;16.33;8.50;;;2.10;99.90;;;;;;5076146;28;20498;-55
2021/01/02 06:09:35;;;;;;;15.83;9.00;;;2.10;99.90;;;;;;5076659;28;20453;-54
2021/01/02 06:12:07;;;;;;;18.57;9.40;;;2.00;99.90;;;;;;5076960;28;20484;-54
2021/01/02 06:14:35;;;;;;;14.90;8.80;;;1.90;99.90;;;;;;5076519;28;20565;-55
2021/01/02 06:17:07;;;;;;;19.43;9.60;;;2.00;99.90;;;;;;5076511;28;20937;-54
2021/01/02 06:19:34;;;;;;;22.60;9.27;;;1.80;99.90;;;;;;5073728;28;20518;-54
2021/01/02 06:22:01;;;;;;;17.87;9.90;;;1.80;99.90;;;;;;5076856;28;20447;-54
2021/01/02 06:24:28;;;;;;;18.53;9.17;;;1.90;99.90;;;;;;5075590;28;21191;-54
2021/01/02 06:26:57;;;;;;;18.80;10.10;;;2.00;99.90;;;;;;5075545;28;20714;-54
2021/01/02 06:29:24;;;;;;;19.37;9.50;;;2.00;99.90;;;;;;5076375;28;20455;-54
2021/01/02 06:31:50;;;;;;;18.67;9.33;;;2.00;99.90;;;;;;5077420;28;20455;-54
2021/01/02 06:34:17;;;;;;;17.70;9.60;;;2.00;99.90;;;;;;5076303;28;20463;-54
2021/01/02 06:36:43;;;;;;;19.27;10.93;;;2.10;99.90;;;;;;5076556;28;20450;-55
2021/01/02 06:39:21;;;;;;;18.10;10.43;;;2.10;99.90;;;;;;5076151;28;20443;-54
2021/01/02 06:41:49;;;;;;;18.70;10.20;;;2.10;99.90;;;;;;5068369;28;20508;-54
2021/01/02 06:44:38;;;;;;;20.60;10.50;;;2.10;99.90;;;;;;5063211;28;20473;-55
2021/01/02 06:47:21;;;;;;;18.73;9.83;;;2.00;99.90;;;;;;5064140;28;20446;-54
2021/01/02 06:49:48;;;;;;;25.73;13.87;;;2.00;99.90;;;;;;5066985;28;20884;-54
2021/01/02 06:52:31;;;;;;;32.90;15.80;;;2.10;99.90;;;;;;5071275;28;20451;-54
2021/01/02 06:55:19;;;;;;;24.30;14.70;;;2.00;99.90;;;;;;5070364;28;20482;-54
2021/01/02 06:57:46;;;;;;;21.50;11.70;;;1.90;99.90;;;;;;5066081;28;20451;-54
2021/01/02 07:00:25;;;;;;;24.23;12.33;;;1.90;99.90;;;;;;5070352;28;21017;-54
2021/01/02 07:02:52;;;;;;;45.40;25.00;;;2.00;99.90;;;;;;5065959;28;20525;-54
2021/01/02 07:05:44;;;;;;;25.70;15.70;;;2.00;99.90;;;;;;5071023;28;20462;-54
2021/01/02 07:08:41;;;;;;;40.50;25.60;;;2.10;99.90;;;;;;5071127;28;20632;-54
2021/01/02 07:11:22;;;;;;;28.67;16.70;;;2.00;99.90;;;;;;5066859;28;20529;-54
2021/01/02 07:13:49;;;;;;;27.70;15.60;;;2.00;99.90;;;;;;5070988;28;20466;-54
2021/01/02 07:16:32;;;;;;;26.33;14.60;;;2.00;99.90;;;;;;5070706;28;21034;-54
2021/01/02 07:18:58;;;;;;;24.50;13.57;;;1.90;99.90;;;;;;5063997;28;20903;-54
2021/01/02 07:21:32;;;;;;;25.83;14.33;;;1.80;99.90;;;;;;5070888;28;20576;-54
2021/01/02 07:24:20;;;;;;;33.30;19.20;;;1.80;99.90;;;;;;5070609;28;20480;-54
2021/01/02 07:26:47;;;;;;;22.93;13.20;;;1.90;99.90;;;;;;5070705;28;20504;-54
2021/01/02 07:29:20;;;;;;;22.30;12.30;;;1.90;99.90;;;;;;5070395;28;20457;-54
2021/01/02 07:31:47;;;;;;;21.00;12.57;;;1.80;99.90;;;;;;5070230;28;20442;-54
2021/01/02 07:34:18;;;;;;;24.17;12.37;;;1.90;99.90;;;;;;5082733;28;20514;-54
2021/01/02 07:36:45;;;;;;;26.33;14.13;;;1.90;99.90;;;;;;5071832;28;20960;-54
2021/01/02 07:39:12;;;;;;;24.03;13.80;;;2.00;99.90;;;;;;5066561;28;20475;-54
2021/01/02 07:41:39;;;;;;;23.03;12.83;;;2.00;99.90;;;;;;5060926;28;20451;-54
2021/01/02 07:44:09;;;;;;;23.20;13.00;;;2.10;99.90;;;;;;5065870;28;20504;-54
2021/01/02 07:46:43;;;;;;;21.57;12.00;;;2.20;99.90;;;;;;5062986;28;20893;-54
2021/01/02 07:49:16;;;;;;;23.93;12.77;;;2.30;99.90;;;;;;5061272;28;20468;-54
2021/01/02 07:51:47;;;;;;;23.33;12.70;;;2.50;99.90;;;;;;5060091;28;20459;-54
2021/01/02 07:54:14;;;;;;;20.67;12.07;;;2.50;99.90;;;;;;5060401;28;20484;-54
2021/01/02 07:56:41;;;;;;;23.87;12.60;;;2.50;99.90;;;;;;5061408;28;20580;-54
2021/01/02 07:59:24;;;;;;;21.50;11.93;;;2.60;99.90;;;;;;5062027;28;20463;-54
2021/01/02 08:01:53;;;;;;;21.20;11.50;;;2.70;99.90;;;;;;5061454;28;20458;-54
2021/01/02 08:04:20;;;;;;;22.13;11.80;;;2.80;99.90;;;;;;5061175;28;20482;-54
2021/01/02 08:06:49;;;;;;;33.90;12.97;;;2.90;99.90;;;;;;5067542;28;20456;-54
2021/01/02 08:09:15;;;;;;;25.33;12.73;;;2.90;99.90;;;;;;5062948;28;20742;-54
2021/01/02 08:11:54;;;;;;;22.20;12.70;;;2.90;99.90;;;;;;5059068;28;20435;-54
2021/01/02 08:14:21;;;;;;;26.77;13.57;;;3.00;99.90;;;;;;5054477;28;20462;-54
2021/01/02 08:17:03;;;;;;;23.33;13.00;;;2.80;99.90;;;;;;5053179;28;20844;-54
2021/01/02 08:19:31;;;;;;;23.17;12.73;;;2.80;99.90;;;;;;5050320;28;20443;-54
2021/01/02 08:21:59;;;;;;;23.37;12.33;;;2.70;99.90;;;;;;5066928;28;20825;-54
2021/01/02 08:24:26;;;;;;;22.23;11.77;;;2.50;99.90;;;;;;5057879;28;21005;-54
2021/01/02 08:26:53;;;;;;;22.37;12.37;;;2.60;99.90;;;;;;5065560;28;20454;-54
2021/01/02 08:29:20;;;;;;;22.33;11.87;;;2.60;99.90;;;;;;5068240;28;20461;-54
2021/01/02 08:31:50;;;;;;;23.13;12.63;;;2.70;99.90;;;;;;5063535;28;20459;-54
2021/01/02 08:34:25;;;;;;;20.03;11.23;;;2.70;99.90;;;;;;5065275;28;21003;-54
2021/01/02 08:36:57;;;;;;;25.30;12.47;;;2.80;99.90;;;;;;5069327;28;20862;-54
2021/01/02 08:39:23;;;;;;;22.80;12.60;;;2.80;99.90;;;;;;5064721;28;20509;-54
2021/01/02 08:41:54;;;;;;;23.97;12.70;;;2.70;99.90;;;;;;5073742;28;20457;-54
2021/01/02 08:44:26;;;;;;;24.27;11.83;;;2.60;99.90;;;;;;5070369;28;20466;-55
2021/01/02 08:46:53;;;;;;;26.97;14.13;;;2.60;99.90;;;;;;5068105;28;20450;-54
2021/01/02 08:49:44;;;;;;;27.07;14.27;;;2.60;99.90;;;;;;5067587;28;20447;-54
2021/01/02 08:52:15;;;;;;;30.67;15.30;;;2.50;99.90;;;;;;5070038;28;20481;-54
2021/01/02 08:54:41;;;;;;;28.63;15.63;;;2.50;99.90;;;;;;5061448;28;20475;-54
2021/01/02 08:57:32;;;;;;;29.83;18.57;;;2.20;99.90;;;;;;5053637;28;20460;-54
2021/01/02 09:00:16;;;;;;;47.72;27.35;;;2.30;99.90;;;;;;5060787;28;20449;-56
2021/01/02 09:02:44;;;;;;;42.07;23.57;;;2.40;99.90;;;;;;5066279;28;20724;-54
2021/01/02 09:05:13;;;;;;;36.17;19.93;;;2.70;99.90;;;;;;5062962;28;20507;-54
2021/01/02 09:07:51;;;;;;;43.23;23.47;;;2.70;99.90;;;;;;5062021;28;20466;-55
2021/01/02 09:10:20;;;;;;;42.77;23.30;;;2.80;99.90;;;;;;5066641;28;20549;-54
2021/01/02 09:13:06;;;;;;;37.67;20.20;;;2.80;99.90;;;;;;5062079;28;20466;-54
2021/01/02 09:15:55;;;;;;;53.70;28.30;;;2.60;99.90;;;;;;5060749;28;21172;-54
2021/01/02 09:18:42;;;;;;;36.90;20.27;;;2.70;99.90;;;;;;5056069;28;21062;-54
2021/01/02 09:21:21;;;;;;;36.67;18.23;;;2.80;99.90;;;;;;5060905;28;20447;-54
2021/01/02 09:23:47;;;;;;;39.77;23.77;;;2.70;99.90;;;;;;5072036;28;20844;-55
2021/01/02 09:26:26;;;;;;;47.27;25.97;;;2.80;99.90;;;;;;5066973;28;20468;-55
2021/01/02 09:28:54;;;;;;;45.53;23.50;;;2.80;99.90;;;;;;5059457;28;20444;-54
2021/01/02 09:31:21;;;;;;;41.40;23.33;;;2.80;99.90;;;;;;5069241;28;20821;-54
2021/01/02 09:33:49;;;;;;;45.20;22.07;;;2.70;99.90;;;;;;5061481;28;20476;-54
2021/01/02 09:36:16;;;;;;;44.13;24.03;;;2.90;99.90;;;;;;5069228;28;20525;-54
2021/01/02 09:38:44;;;;;;;60.37;27.60;;;3.10;99.90;;;;;;5070737;28;20948;-54
2021/01/02 09:41:15;;;;;;;44.20;24.10;;;3.40;99.90;;;;;;5066189;28;20448;-54
2021/01/02 09:43:42;;;;;;;42.20;19.70;;;3.50;99.90;;;;;;5057426;28;20474;-54
2021/01/02 09:46:12;;;;;;;31.37;17.60;;;3.70;99.90;;;;;;5065605;28;20450;-54
2021/01/02 09:48:41;;;;;;;41.87;23.40;;;3.80;99.90;;;;;;5059449;28;20456;-54
2021/01/02 09:51:09;;;;;;;34.70;19.00;;;3.90;99.90;;;;;;5067701;28;20530;-54
2021/01/02 09:53:35;;;;;;;35.83;19.60;;;3.70;99.90;;;;;;5056120;28;20982;-54
2021/01/02 09:56:02;;;;;;;36.20;19.33;;;3.90;99.90;;;;;;5068486;28;20490;-54
2021/01/02 09:58:29;;;;;;;31.63;18.20;;;4.00;99.90;;;;;;5065298;28;20474;-54
2021/01/02 10:00:56;;;;;;;34.20;18.40;;;3.90;99.90;;;;;;5053948;28;20834;-54
2021/01/02 10:03:23;;;;;;;31.87;17.30;;;4.10;99.90;;;;;;5061722;28;20505;-54
2021/01/02 10:05:49;;;;;;;38.67;21.57;;;4.30;99.90;;;;;;5067747;28;20442;-54
2021/01/02 10:08:16;;;;;;;29.63;17.90;;;4.60;99.90;;;;;;5071003;28;20960;-54
2021/01/02 10:10:43;;;;;;;33.10;19.00;;;4.90;99.90;;;;;;5069840;28;20447;-55
2021/01/02 10:13:10;;;;;;;28.10;15.27;;;5.20;99.90;;;;;;5059253;28;20456;-54
2021/01/02 10:15:37;;;;;;;28.70;15.70;;;5.30;99.90;;;;;;5065225;28;20493;-54
2021/01/02 10:18:04;;;;;;;25.03;15.13;;;5.70;99.90;;;;;;5065761;28;20455;-54
2021/01/02 10:20:31;;;;;;;34.73;20.97;;;6.00;99.90;;;;;;5092862;22;20559;-56
2021/01/02 10:22:57;;;;;;;27.57;14.00;;;6.30;99.90;;;;;;5091375;28;20941;-56
2021/01/02 10:25:24;;;;;;;30.27;14.90;;;6.50;99.90;;;;;;5088288;28;21174;-56
2021/01/02 10:27:50;;;;;;;22.43;12.50;;;7.10;99.90;;;;;;5091125;28;20446;-56
2021/01/02 10:30:18;;;;;;;24.53;14.40;;;7.60;99.90;;;;;;5085597;28;20535;-55
2021/01/02 10:32:45;;;;;;;25.63;13.60;;;7.60;99.90;;;;;;5070908;28;20446;-56
2021/01/02 10:35:14;;;;;;;34.10;18.40;;;7.40;99.90;;;;;;5062396;28;20863;-56
2021/01/02 10:37:40;;;;;;;37.47;20.20;;;7.10;99.90;;;;;;5068323;28;20446;-56
2021/01/02 10:40:08;;;;;;;22.30;12.90;;;6.50;99.90;;;;;;5068363;28;20490;-56
2021/01/02 10:42:35;;;;;;;29.07;15.77;;;6.20;99.90;;;;;;5070240;28;20970;-56
2021/01/02 10:45:04;;;;;;;23.10;13.50;;;6.00;99.90;;;;;;5070619;28;20461;-56
2021/01/02 10:47:31;;;;;;;24.70;13.33;;;5.90;99.90;;;;;;5070669;28;20446;-56
2021/01/02 10:49:58;;;;;;;27.87;12.63;;;6.00;99.90;;;;;;5067213;28;20974;-55
2021/01/02 10:52:28;;;;;;;21.17;11.27;;;5.90;99.90;;;;;;5068689;28;20868;-56
2021/01/02 10:54:55;;;;;;;22.37;11.70;;;5.50;99.90;;;;;;5069085;28;20447;-56
2021/01/02 10:57:25;;;;;;;22.67;12.17;;;5.30;99.90;;;;;;5069441;28;20455;-55
2021/01/02 10:59:52;;;;;;;24.07;13.50;;;5.10;99.90;;;;;;5069439;28;20451;-56
2021/01/02 11:02:20;;;;;;;20.23;11.20;;;5.30;99.90;;;;;;5067923;28;20493;-55
2021/01/02 11:04:46;;;;;;;22.00;11.40;;;5.30;99.90;;;;;;5068375;28;20967;-56
2021/01/02 11:07:14;;;;;;;20.27;11.17;;;5.30;99.90;;;;;;5069197;28;20443;-55
2021/01/02 11:09:43;;;;;;;20.40;10.43;;;5.50;99.90;;;;;;5069173;28;20451;-55
2021/01/02 11:12:10;;;;;;;22.27;11.93;;;5.40;99.90;;;;;;5069381;28;20451;-56
2021/01/02 11:14:39;;;;;;;24.10;10.80;;;5.60;99.90;;;;;;5068423;28;20447;-56
2021/01/02 11:17:07;;;;;;;19.43;11.20;;;5.50;99.90;;;;;;5069397;28;20569;-55
2021/01/02 11:19:34;;;;;;;21.60;10.67;;;5.40;99.90;;;;;;5069587;28;20446;-55
2021/01/02 11:22:02;;;;;;;20.33;11.50;;;5.50;99.90;;;;;;5067044;28;20495;-55
2021/01/02 11:24:32;;;;;;;21.93;11.60;;;5.20;99.90;;;;;;5062748;28;20482;-55
2021/01/02 11:27:00;;;;;;;19.57;11.27;;;5.20;99.90;;;;;;5063739;28;20451;-55
2021/01/02 11:29:29;;;;;;;22.40;11.43;;;4.90;99.90;;;;;;5065195;28;20447;-55
2021/01/02 11:31:56;;;;;;;29.00;13.20;;;4.80;99.90;;;;;;5069431;28;20478;-56
2021/01/02 11:34:25;;;;;;;18.83;11.57;;;4.90;99.90;;;;;;5068681;28;20454;-55
2021/01/02 11:36:54;;;;;;;23.57;11.20;;;4.90;99.90;;;;;;5068119;28;20482;-56
2021/01/02 11:39:20;;;;;;;23.50;11.40;;;4.70;99.90;;;;;;5069121;28;20458;-55
2021/01/02 11:41:48;;;;;;;21.47;11.00;;;4.70;99.90;;;;;;5069826;28;20903;-56
2021/01/02 11:44:18;;;;;;;22.37;11.17;;;4.90;99.90;;;;;;5067526;28;20904;-55
2021/01/02 11:46:46;;;;;;;21.10;11.47;;;4.70;99.90;;;;;;5069831;28;20443;-55
2021/01/02 11:49:16;;;;;;;22.57;10.90;;;4.80;99.90;;;;;;5067824;28;20466;-56
2021/01/02 11:51:48;;;;;;;20.23;11.20;;;4.80;99.90;;;;;;5067002;28;21022;-55
2021/01/02 11:54:14;;;;;;;21.77;10.77;;;4.90;99.90;;;;;;5067226;28;20861;-55
2021/01/02 11:56:41;;;;;;;18.57;10.67;;;5.20;99.90;;;;;;5069742;28;20486;-56
2021/01/02 11:59:08;;;;;;;20.43;10.20;;;5.40;99.90;;;;;;5061686;28;20516;-55
2021/01/02 12:01:37;;;;;;;21.17;10.63;;;5.30;99.90;;;;;;5068770;28;20532;-56
2021/01/02 12:04:08;;;;;;;18.90;10.40;;;5.20;99.90;;;;;;5068236;28;20459;-56
2021/01/02 12:06:34;;;;;;;21.43;10.50;;;5.20;99.90;;;;;;5067742;28;20454;-56
2021/01/02 12:09:01;;;;;;;27.87;11.70;;;5.20;99.90;;;;;;5069186;28;20508;-56
2021/01/02 12:11:30;;;;;;;24.40;12.50;;;5.40;99.90;;;;;;5069627;28;20478;-56
2021/01/02 12:13:56;;;;;;;17.13;9.33;;;5.70;99.90;;;;;;5069514;28;20452;-56
2021/01/02 12:16:31;;;;;;;20.80;9.90;;;5.50;99.90;;;;;;5069941;28;20856;-56
2021/01/02 12:18:58;;;;;;;17.50;9.53;;;5.60;99.90;;;;;;5068967;28;20505;-55
2021/01/02 12:21:24;;;;;;;19.17;9.70;;;5.50;99.90;;;;;;5069112;28;20866;-56
2021/01/02 12:23:51;;;;;;;18.90;9.73;;;5.40;99.90;;;;;;5069369;28;20461;-55
2021/01/02 12:26:17;;;;;;;17.57;9.57;;;5.00;99.90;;;;;;5061518;28;20444;-55
2021/01/02 12:28:47;;;;;;;20.47;10.33;;;5.00;99.90;;;;;;5069659;28;20504;-55
2021/01/02 12:31:16;;;;;;;18.60;8.80;;;4.90;99.90;;;;;;5069333;28;20532;-56
2021/01/02 12:33:45;;;;;;;22.77;10.23;;;4.70;99.90;;;;;;5069209;28;20451;-55
2021/01/02 12:36:12;;;;;;;22.83;10.83;;;4.60;99.90;;;;;;5064161;28;20484;-55
2021/01/02 12:38:39;;;;;;;22.60;10.27;;;4.50;99.90;;;;;;5069075;28;20451;-55
2021/01/02 12:41:12;;;;;;;18.37;9.77;;;4.50;99.90;;;;;;5068917;28;20475;-56
2021/01/02 12:43:39;;;;;;;20.73;10.00;;;4.50;99.90;;;;;;5069927;28;20442;-56
2021/01/02 12:46:06;;;;;;;17.30;8.63;;;4.60;99.90;;;;;;5068367;28;20455;-56
2021/01/02 12:48:32;;;;;;;16.60;8.80;;;4.70;99.90;;;;;;5069497;28;20475;-55
2021/01/02 12:51:00;;;;;;;17.00;8.73;;;4.70;99.90;;;;;;5069418;28;20507;-56
2021/01/02 12:53:26;;;;;;;14.90;7.97;;;4.80;99.90;;;;;;5068919;28;20450;-56
2021/01/02 12:55:53;;;;;;;14.23;8.70;;;4.80;99.90;;;;;;5069940;28;20480;-55
2021/01/02 12:58:19;;;;;;;17.37;8.53;;;4.80;99.90;;;;;;5069619;28;20466;-56